createdAt,value
2023-02-04T00:01:16.048Z,7.8962453940134765
2023-02-04T00:04:16.244Z,7.916155462270035
2023-02-04T00:07:18.845Z,7.933496493021903
2023-02-04T00:11:15.866Z,7.940561358352715
2023-02-04T00:14:16.197Z,7.981023779483894
2023-02-04T00:17:16.294Z,7.964325000321788
2023-02-04T00:21:16.639Z,7.972674389518579
2023-02-04T00:24:16.976Z,7.923220326250248
2023-02-04T00:27:16.868Z,7.945699442575278
2023-02-04T00:31:16.199Z,7.949553005933194
2023-02-04T00:34:18.535Z,7.923220326250248
2023-02-04T00:37:16.548Z,7.905237037201095
2023-02-04T00:41:15.913Z,7.92450484703304
2023-02-04T00:44:16.416Z,7.890465052434957
2023-02-04T00:47:16.345Z,7.828808098516674
2023-02-04T00:51:16.061Z,7.822385501560348
2023-02-04T00:54:16.290Z,7.796695118282514
2023-02-04T00:57:16.557Z,7.840368774184026
2023-02-04T01:01:17.199Z,7.7767850762466875
2023-02-04T01:04:17.685Z,7.768435705080629
2023-02-04T01:07:17.805Z,7.761370853155768
2023-02-04T01:11:15.966Z,7.740818559775744
2023-02-04T01:14:16.174Z,7.745956632684193
2023-02-04T01:17:16.132Z,7.752379224229026
2023-02-04T01:21:16.932Z,7.756232779374204
2023-02-04T01:24:16.814Z,7.735680487158334
2023-02-04T01:27:16.853Z,7.607228766310527
2023-02-04T01:31:16.403Z,7.546856520349047
2023-02-04T01:34:16.183Z,7.52887330591484
2023-02-04T01:37:16.350Z,7.491622373071095
2023-02-04T01:41:17.062Z,7.517312669946932
2023-02-04T01:44:16.522Z,7.464647569182216
2023-02-04T01:47:16.742Z,7.4781349701239375
2023-02-04T01:51:23.862Z,7.377942896727473
2023-02-04T01:54:18.254Z,7.2758241665688725
2023-02-04T01:57:17.319Z,7.314359522934046
2023-02-04T02:01:34.521Z,7.305367938317886
2023-02-04T02:11:16.169Z,7.199395758210812
2023-02-04T02:14:16.599Z,7.215452141178048
2023-02-04T02:17:16.311Z,7.11847163131606
2023-02-04T02:21:21.069Z,6.9861672618982995
2023-02-04T02:24:33.343Z,7.019564463154893
2023-02-04T02:27:16.653Z,6.957908101208522
2023-02-04T02:31:18.076Z,6.917446136457238
2023-02-04T02:34:16.684Z,6.891113756393679
2023-02-04T02:37:16.491Z,6.826246218603137
2023-02-04T02:41:15.986Z,6.846156052000879
2023-02-04T02:44:17.388Z,6.8699194072608405
2023-02-04T02:47:19.316Z,6.862212372440354
2023-02-04T02:51:16.271Z,6.814043419648442
2023-02-04T02:54:22.268Z,6.727981621005165
2023-02-04T03:11:16.612Z,6.667609960239861
2023-02-04T03:14:17.776Z,6.644488909311258
2023-02-04T03:17:17.528Z,6.596320072138861
2023-02-04T03:21:16.176Z,6.561638525213584
2023-02-04T03:24:17.727Z,6.528883743071129
2023-02-04T03:27:16.594Z,6.530168244108791
2023-02-04T03:31:16.930Z,6.517323234550713
2023-02-04T03:34:17.545Z,6.550720263185212
2023-02-04T03:37:17.092Z,6.503193726137761
2023-02-04T03:41:16.687Z,6.444106714803274
2023-02-04T03:44:17.102Z,6.422912470116808
2023-02-04T03:47:17.074Z,6.3670367578630245
2023-02-04T03:51:16.450Z,6.412636474475676
2023-02-04T03:54:16.770Z,6.390799987603623
2023-02-04T03:57:16.736Z,6.399149231963383
2023-02-04T04:01:16.284Z,6.429977217795385
2023-02-04T04:04:16.512Z,6.371532503552681
2023-02-04T04:07:16.475Z,6.381166245066561
2023-02-04T04:11:16.659Z,6.3670367578630245
2023-02-04T04:14:17.123Z,6.439610965516567
2023-02-04T04:17:17.019Z,6.440895465290032
2023-02-04T04:21:15.778Z,6.461447464139292
2023-02-04T04:24:16.187Z,6.453740464025122
2023-02-04T04:27:16.279Z,6.461447464139292
2023-02-04T04:31:15.990Z,6.519892236316809
2023-02-04T04:34:16.093Z,6.467869964734655
2023-02-04T04:37:16.115Z,6.4897064701603995
2023-02-04T04:41:16.547Z,6.48135721746512
2023-02-04T04:44:16.956Z,6.514111982445411
2023-02-04T04:47:17.014Z,6.499982474532681
2023-02-04T04:51:15.869Z,6.468512214819202
2023-02-04T04:54:16.242Z,6.485852968820927
2023-02-04T04:57:16.422Z,6.467227714654655
2023-02-04T05:01:16.744Z,6.480072717118674
2023-02-04T05:04:17.161Z,6.512185231236799
2023-02-04T05:07:17.112Z,6.478788216790417
2023-02-04T05:11:15.689Z,6.5308104946344425
2023-02-04T05:14:16.170Z,6.50255147580765
2023-02-04T05:17:16.123Z,6.488421969695719
2023-02-04T05:21:16.150Z,6.439610965516567
2023-02-04T05:24:16.216Z,6.436399716162486
2023-02-04T05:27:16.355Z,6.4563094639904195
2023-02-04T05:31:16.395Z,6.462089714178364
2023-02-04T05:34:16.878Z,6.442179965081687
2023-02-04T05:37:18.940Z,6.399791481561351
2023-02-04T05:41:15.887Z,6.413920973867152
2023-02-04T05:44:16.333Z,6.410709725422566
2023-02-04T05:47:16.766Z,6.409425226076564
2023-02-04T05:51:16.576Z,6.4274082185758745
2023-02-04T05:54:19.870Z,6.378597247229481
2023-02-04T05:57:17.138Z,6.3188680680287685
2023-02-04T06:01:16.683Z,6.340062288404442
2023-02-04T06:04:16.792Z,6.325932807603749
2023-02-04T06:07:16.755Z,6.33942003922939
2023-02-04T06:11:16.423Z,6.3612565137323145
2023-02-04T06:14:16.873Z,6.350338275823742
2023-02-04T06:17:17.058Z,6.3670367578630245
2023-02-04T06:21:16.435Z,6.338777790058884
2023-02-04T06:24:16.537Z,6.2829021296326575
2023-02-04T06:27:23.414Z,6.288682368770242
2023-02-04T06:31:17.111Z,6.321437064174188
2023-02-04T06:34:16.984Z,6.3721747529551065
2023-02-04T06:37:17.353Z,6.3670367578630245
2023-02-04T06:41:16.248Z,6.34455803275714
2023-02-04T06:44:16.478Z,6.328501803949257
2023-02-04T06:47:17.047Z,6.323363811331001
2023-02-04T06:51:16.252Z,6.322721562274182
2023-02-04T06:54:16.656Z,6.343915783550256
2023-02-04T06:57:16.417Z,6.371532503552681
2023-02-04T07:01:15.890Z,6.3195103170583025
2023-02-04T07:04:16.382Z,6.3580452671521925
2023-02-04T07:07:16.338Z,6.3972224831967655
2023-02-04T07:11:16.079Z,6.426765968782365
2023-02-04T07:14:16.221Z,6.462731964221985
2023-02-04T07:17:16.135Z,6.465943214508298
2023-02-04T07:21:16.680Z,6.483283968018895
2023-02-04T07:24:16.678Z,6.523103488626748
2023-02-04T07:27:16.706Z,6.535306248441339
2023-02-04T07:31:16.583Z,6.575768042730578
2023-02-04T07:34:18.103Z,6.578979297018668
2023-02-04T07:37:16.735Z,6.622652366623515
2023-02-04T07:41:16.774Z,6.650911422866921
2023-02-04T07:44:17.115Z,6.78321530328576
2023-02-04T07:47:17.196Z,6.815327924724261
2023-02-04T07:51:16.217Z,6.888544744113824
2023-02-04T07:54:16.559Z,6.9309334560355635
2023-02-04T07:57:16.670Z,6.949558805416837
2023-02-04T08:01:17.494Z,7.01121516168796
2023-02-04T08:04:17.546Z,7.098561738146327
2023-02-04T08:07:17.281Z,7.135812509572952
2023-02-04T08:11:15.854Z,7.250133938087037
2023-02-04T08:14:16.670Z,7.332342694840281
2023-02-04T08:17:16.228Z,7.444095343032041
2023-02-04T08:21:18.714Z,7.542360716406256
2023-02-04T08:24:18.200Z,7.657967174310761
2023-02-04T08:27:20.809Z,7.724119824833269
2023-02-04T08:31:17.010Z,7.834588436166177
2023-02-04T08:34:16.537Z,7.923862586639371
2023-02-04T08:37:16.221Z,8.004145171091022
2023-02-04T08:41:16.239Z,8.12296352647827
2023-02-04T08:44:16.762Z,8.211595698332895
2023-02-04T08:47:16.553Z,8.259123130505031
2023-02-04T08:51:17.256Z,8.350966752421026
2023-02-04T08:54:16.621Z,8.429322922950178
2023-02-04T08:57:16.507Z,8.485842169940678
2023-02-04T09:01:16.878Z,8.606587951945494
2023-02-04T09:04:16.406Z,8.68109074868271
2023-02-04T09:07:16.627Z,8.737610152542857
2023-02-04T09:11:16.739Z,8.846153197347666
2023-02-04T09:14:17.399Z,8.937355146057962
2023-02-04T09:17:18.004Z,8.997086049483277
2023-02-04T09:21:16.412Z,9.105629404771388
2023-02-04T09:24:16.519Z,9.198758422595073
2023-02-04T09:27:16.630Z,9.275188515551054
2023-02-04T09:31:16.631Z,9.368317707452025
2023-02-04T09:34:16.640Z,9.449886112695458
2023-02-04T09:37:16.560Z,9.531454591285092
2023-02-04T09:41:16.919Z,9.641925403631557
2023-02-04T09:44:21.712Z,9.726705420626331
2023-02-04T09:47:21.264Z,9.828826909937197
2023-02-04T09:51:20.208Z,9.965631349364504
2023-02-04T09:54:19.090Z,10.092801858371331
2023-02-04T09:57:19.254Z,10.190427824632298
2023-02-04T10:01:19.141Z,10.353566186939952
2023-02-04T10:04:17.170Z,10.490371417723145
2023-02-04T10:07:20.793Z,10.656721718090647
2023-02-04T10:11:19.777Z,10.825641447218368
2023-02-04T10:14:20.596Z,10.968227927264888
2023-02-04T10:17:21.251Z,11.148709333745591
2023-02-04T10:21:19.972Z,11.358093906498198
2023-02-04T10:24:19.381Z,11.51031550970838
2023-02-04T10:27:16.983Z,11.624000164796689
2023-02-04T10:31:34.870Z,11.780075940280586
2023-02-04T10:34:19.275Z,11.912387301820853
2023-02-04T10:37:19.452Z,12.089016847354014
2023-02-04T10:41:16.829Z,12.331160455942154
2023-02-04T10:44:19.306Z,12.436496338866709
2023-02-04T10:47:19.724Z,12.590646631900745
2023-02-04T10:51:15.953Z,12.814807317079339
2023-02-04T10:54:37.479Z,12.98116187988926
2023-02-04T10:57:21.745Z,13.089710002325683
2023-02-04T11:01:17.075Z,13.204038934443906
2023-02-04T11:04:16.557Z,13.3273601912887
2023-02-04T11:07:16.654Z,13.54381509432569
2023-02-04T11:11:18.599Z,13.662640705775356
2023-02-04T11:14:23.545Z,13.82899682327552
2023-02-04T11:17:20.521Z,14.040314493472488
2023-02-04T11:21:27.106Z,14.270901813732053
2023-02-04T11:24:24.808Z,14.333205452089988
2023-02-04T11:27:21.994Z,14.50598586892047
2023-02-04T11:31:59.358Z,14.637658898224709
2023-02-04T11:34:31.697Z,14.785389841516826
2023-02-04T11:37:33.398Z,14.940828745913404
2023-02-04T11:41:23.804Z,15.095625605457462
2023-02-04T11:44:17.714Z,15.164995238174743
2023-02-04T11:47:17.173Z,15.36925057586086
2023-02-04T11:51:17.666Z,15.388519971078495
2023-02-04T11:54:19.206Z,15.497713287952138
2023-02-04T11:57:16.360Z,15.538821394238402
2023-02-04T12:01:17.169Z,15.77390873490367
2023-02-04T12:04:23.121Z,15.95375738493749
2023-02-04T12:07:22.938Z,16.041754890028916
2023-02-04T12:11:26.122Z,16.082863242824622
2023-02-04T12:14:18.107Z,16.244085243718292
2023-02-04T12:17:19.152Z,16.360987431518517
2023-02-04T12:21:16.879Z,16.54276420956312
2023-02-04T12:24:16.957Z,16.627550675821205
2023-02-04T12:27:17.044Z,16.79005829095586
2023-02-04T12:31:16.806Z,16.8947570272162
2023-02-04T12:34:17.868Z,17.0110177286846
2023-02-04T12:37:17.124Z,17.027075848331968
2023-02-04T12:41:16.223Z,17.077819525098676
2023-02-04T12:44:17.655Z,17.22105815821278
2023-02-04T12:47:16.737Z,17.259597739362743
2023-02-04T12:51:16.605Z,17.391274765145862
2023-02-04T12:54:17.430Z,17.497258851539026
2023-02-04T12:57:19.912Z,17.574338264859488
2023-02-04T13:01:16.755Z,17.741343885032347
2023-02-04T13:04:17.117Z,17.716293022409083
2023-02-04T13:07:17.684Z,17.761898444145572
2023-02-04T13:11:16.249Z,17.802365246008048
2023-02-04T13:14:16.546Z,17.787591649585465
2023-02-04T13:17:16.791Z,17.83769342112073
2023-02-04T13:21:16.028Z,17.845401388427945
2023-02-04T13:24:17.393Z,17.801722915678784
2023-02-04T13:27:16.453Z,17.8441167271646
2023-02-04T13:31:16.947Z,17.844759057794
2023-02-04T13:34:17.851Z,17.87173694833509
2023-02-04T13:37:17.314Z,17.91670011706301
2023-02-04T13:41:15.802Z,17.97194061200462
2023-02-04T13:44:16.257Z,18.065721064154058
2023-02-04T13:47:16.397Z,18.195472260524184
2023-02-04T13:51:17.198Z,18.24750125772416
2023-02-04T13:54:17.216Z,18.21474225600832
2023-02-04T13:57:17.986Z,18.12545797804787
2023-02-04T14:01:16.222Z,18.032319796110095
2023-02-04T14:04:16.504Z,17.94753201706917
2023-02-04T14:07:16.545Z,17.816496514402388
2023-02-04T14:11:16.181Z,17.7426285448405
2023-02-04T14:14:16.612Z,17.78309533810825
2023-02-04T14:17:16.550Z,17.46321546483705
2023-02-04T14:21:16.560Z,17.56277634868684
2023-02-04T14:24:17.597Z,17.524878967117182
2023-02-04T14:27:16.851Z,17.5030398052666
2023-02-04T14:31:16.056Z,17.418894848459693
2023-02-04T14:34:16.382Z,17.370720289997188
2023-02-04T14:37:16.349Z,17.251889821823077
2023-02-04T14:41:20.352Z,16.779781120902406
2023-02-04T14:44:20.916Z,16.86585245605238
2023-02-04T14:47:16.985Z,16.85493295378701
2023-02-04T14:51:16.032Z,16.815108897838307
2023-02-04T14:54:16.786Z,16.72325670641767
2023-02-04T14:57:16.576Z,16.65966678221603
2023-02-04T15:01:17.315Z,16.57359564267108
2023-02-04T15:04:18.500Z,16.535698674284866
2023-02-04T15:07:17.012Z,16.45605086011965
2023-02-04T15:11:15.885Z,16.34428710975335
2023-02-04T15:14:16.373Z,16.310886475445294
2023-02-04T15:17:16.369Z,16.245369882326123
2023-02-04T15:21:17.512Z,16.265281783073533
2023-02-04T15:24:17.133Z,16.240873647278296
2023-02-04T15:27:16.899Z,16.250508436939345
2023-02-04T15:31:16.830Z,16.250508436939345
2023-02-04T15:34:16.992Z,16.228669581843132
2023-02-04T15:37:16.976Z,16.195911309055464
2023-02-04T15:41:16.418Z,16.15351826771157
2023-02-04T15:44:16.718Z,16.13232175446792
2023-02-04T15:47:16.771Z,16.041112572164273
2023-02-04T15:51:16.561Z,15.964676778741069
2023-02-04T15:54:18.312Z,15.88053324868124
2023-02-04T15:57:17.087Z,15.814374650077024
2023-02-04T16:01:18.338Z,15.76620094358368
2023-02-04T16:04:19.234Z,15.694261589508097
2023-02-04T16:07:17.867Z,15.591491182638856
2023-02-04T16:11:16.484Z,15.454035945432043
2023-02-04T16:14:16.474Z,15.332638736222815
2023-02-04T16:17:19.000Z,15.204176257871676
2023-02-04T16:21:17.681Z,15.041671483348182
2023-02-04T16:24:18.777Z,14.987075082923639
2023-02-04T16:27:17.694Z,14.84448228619085
2023-02-04T16:31:16.496Z,14.687758930296786
2023-02-04T16:34:17.596Z,14.601689661491491
2023-02-04T16:37:17.724Z,14.461024390488456
2023-02-04T16:41:16.178Z,14.345409262552858
2023-02-04T16:44:16.639Z,14.222086621820926
2023-02-04T16:47:16.582Z,14.145652360932672
2023-02-04T16:51:18.076Z,14.005630100465442
2023-02-04T16:54:16.906Z,13.875884896055595
2023-02-04T16:57:17.118Z,13.700536474051479
2023-02-04T17:01:17.508Z,13.674844426034543
2023-02-04T17:04:17.264Z,13.5258306910182
2023-02-04T17:07:17.095Z,13.439762524547769
2023-02-04T17:11:32.430Z,13.313871920656311
2023-02-04T17:14:16.360Z,13.171924051319456
2023-02-04T17:17:16.347Z,13.088425408401326
2023-02-04T17:21:16.237Z,13.02933410754422
2023-02-04T17:24:16.343Z,12.891240456706146
2023-02-04T17:27:16.142Z,12.803888302389533
2023-02-04T17:31:16.595Z,12.701763463918997
2023-02-04T17:34:17.188Z,12.563670311711395
2023-02-04T17:37:16.886Z,12.498798717428963
2023-02-04T17:41:18.280Z,12.394747346246822
2023-02-04T17:44:20.237Z,12.30803796142718
2023-02-04T17:47:17.817Z,12.166733956336975
2023-02-04T17:51:17.500Z,12.076813340421358
2023-02-04T17:54:16.330Z,12.017080409118444
2023-02-04T17:57:19.017Z,11.936794273089982
2023-02-04T18:01:18.525Z,11.880915164350972
2023-02-04T18:04:16.821Z,11.795490846256508
2023-02-04T18:07:16.842Z,11.749246136186775
2023-02-04T18:11:20.059Z,11.714562619104981
2023-02-04T18:14:23.770Z,11.650333918783872
2023-02-04T18:17:17.212Z,11.580966973514297
2023-02-04T18:21:19.725Z,11.52380351218535
2023-02-04T18:24:21.779Z,11.433241248311607
2023-02-04T18:27:23.207Z,11.347817351772482
2023-02-04T18:31:29.695Z,11.364516753792941
2023-02-04T18:34:35.439Z,11.25211699178908
2023-02-04T18:37:28.760Z,11.209726260570823
2023-02-04T18:41:31.348Z,11.179538933748791
2023-02-04T18:44:27.717Z,11.192384603509073
2023-02-04T18:47:27.177Z,11.124302574506965
2023-02-04T18:51:24.947Z,11.075489075729365
2023-02-04T18:54:26.297Z,11.050440053659623
2023-02-04T18:57:23.904Z,11.033098427047753
2023-02-04T19:01:21.839Z,11.015756803750993
2023-02-04T19:04:21.165Z,11.015114521470332
2023-02-04T19:07:16.250Z,11.003553441196072
2023-02-04T19:11:32.405Z,10.967585645320742
2023-02-04T19:14:23.536Z,10.927764173664855
2023-02-04T19:17:23.686Z,10.909780288969433
2023-02-04T19:21:30.687Z,10.966943363381143
2023-02-04T19:24:21.586Z,10.887300438113744
2023-02-04T19:27:29.163Z,10.852617250578259
2023-02-04T19:31:16.566Z,10.897576940670842
2023-02-04T19:34:24.017Z,10.855828656274479
2023-02-04T19:37:22.621Z,10.85454409398235
2023-02-04T19:41:25.850Z,10.8673897177222
2023-02-04T19:44:42.856Z,10.86353603040925
2023-02-04T19:47:25.899Z,10.846836720611554
2023-02-04T19:51:24.628Z,10.821787761678934
2023-02-04T19:54:18.367Z,10.785177757219298
2023-02-04T19:57:23.277Z,10.745998646006047
2023-02-04T20:01:18.454Z,10.72351883573656
2023-02-04T20:04:19.709Z,10.704250431367928
2023-02-04T20:07:20.789Z,10.658006277581535
2023-02-04T20:11:54.115Z,10.596347442537171
2023-02-04T20:14:24.929Z,10.552030180735528
2023-02-04T20:17:22.560Z,10.49743648219237
2023-02-04T20:21:16.671Z,10.451192433834603
2023-02-04T20:24:17.375Z,10.49229825343291
2023-02-04T20:27:21.444Z,10.38632235017285
2023-02-04T20:31:25.155Z,10.322094590269263
2023-02-04T20:34:21.003Z,10.34200519097585
2023-02-04T20:37:22.826Z,10.320167758174739
2023-02-04T20:41:19.927Z,10.297045776232789
2023-02-04T20:44:25.287Z,10.246305892072632
2023-02-04T20:47:18.704Z,10.195566036293258
2023-02-04T20:51:23.130Z,10.135192067657863
2023-02-04T20:54:20.712Z,10.117850616010037
2023-02-04T20:57:21.934Z,10.013801975740353
2023-02-04T21:01:25.043Z,10.030501132188146
2023-02-04T21:04:22.218Z,9.947005380690097
2023-02-04T21:07:20.732Z,9.95278585331771
2023-02-04T21:11:17.363Z,9.876997463667157
2023-02-04T21:14:20.280Z,9.841030114462864
2023-02-04T21:17:18.491Z,9.812127790614976
2023-02-04T21:21:18.029Z,9.746615890652174
2023-02-04T21:24:19.218Z,9.751111803843468
2023-02-04T21:27:25.118Z,9.720282689292162
2023-02-04T21:31:17.873Z,9.628437680960634
2023-02-04T21:34:17.645Z,9.60146224163509
2023-02-04T21:37:19.985Z,9.571275449996119
2023-02-04T21:41:17.654Z,9.543657755806635
2023-02-04T21:44:18.775Z,9.499341008283318
2023-02-04T21:47:19.197Z,9.458235638630232
2023-02-04T21:51:17.078Z,9.418414829541234
2023-02-04T21:54:19.516Z,9.389512640344037
2023-02-04T21:57:18.975Z,9.38052085002746
2023-02-04T22:01:18.340Z,9.318862883295878
2023-02-04T22:04:18.208Z,9.28353802540596
2023-02-04T22:07:17.808Z,9.268765816185624
2023-02-04T22:11:17.879Z,9.199400692015478
2023-02-04T22:14:16.798Z,9.17756353427285
2023-02-04T22:17:16.730Z,9.137100579409253
2023-02-04T22:21:16.285Z,9.18141714996309
2023-02-04T22:24:16.716Z,9.13260469664965
2023-02-04T22:27:17.063Z,9.097279911291935
2023-02-04T22:31:17.151Z,8.992590173663121
2023-02-04T22:34:17.451Z,8.945704624817244
2023-02-04T22:37:17.268Z,8.925794330583084
2023-02-04T22:41:16.876Z,8.857071735671434
2023-02-04T22:44:17.338Z,8.794771858174135
2023-02-04T22:47:17.175Z,8.727976160758772
2023-02-04T22:51:16.715Z,8.706139116502891
2023-02-04T22:54:17.193Z,8.666318637569566
2023-02-04T22:57:17.119Z,8.613010604426472
2023-02-04T23:01:16.855Z,8.58667773214438
2023-02-04T23:04:17.220Z,8.54878410008032
2023-02-04T23:07:17.787Z,8.503825574095481
2023-02-04T23:11:17.847Z,8.422900283474974
2023-02-04T23:14:16.684Z,8.395282938913443
2023-02-04T23:17:17.293Z,8.413908588973664
2023-02-04T23:21:16.887Z,8.325276219440365
2023-02-04T23:24:16.878Z,8.2649034955758
2023-02-04T23:27:17.217Z,8.226367735394978
2023-02-04T23:31:17.009Z,8.181409369208358
2023-02-04T23:34:17.452Z,8.206457599049099
2023-02-04T23:37:17.385Z,8.119109955753448
2023-02-04T23:41:16.519Z,8.06387546002079
2023-02-04T23:44:17.199Z,8.004145171091022
2023-02-04T23:47:17.994Z,7.9829505618927215
2023-02-04T23:51:16.206Z,7.872481769879596
2023-02-04T23:54:16.598Z,7.8352306959277485
2023-02-04T23:57:16.748Z,7.844864592897011
